Eendracht — PDVN — position and weather

sailwx.info

Track history (hours):
 
Tides and Currents Weather Stations Pressure Air Temp Water Temp Dewpoint Dewpoint Depression Visibility Wind Speed Wind Dir Waves Ship Positions

Eendracht (Netherlands)

Last reported at 2016-Dec-05 13:10 UTC. Time now 2016-Dec-06 21:57 UTC.
Position N 27°39' W 015°19'.

Length 59 m; beam 12 m; draft 5 m.

MMSI: 244543000.

Date/timePositionNaut miles runAvg speedWind from/ knotsBaromVisibWave heightAir tempDewpointWater temp
2016-Dec-05 13:10N 27°39' W 015°19'4 6.1
2016-Dec-05 12:33N 27°42' W 015°19'6 6.0
2016-Dec-05 11:33N 27°48' W 015°19'6 6.1
2016-Dec-05 10:33N 27°54' W 015°19'6 6.4
2016-Dec-05 09:33N 28°01' W 015°20'6 6.3
2016-Dec-05 08:33N 28°06' W 015°23'3 1.9
2016-Dec-05 07:09N 28°08' W 015°25'0 0.0
2016-Dec-05 06:27N 28°08' W 015°25'0 0.0
2016-Dec-05 05:27N 28°08' W 015°25'0 0.0
2016-Dec-05 04:24N 28°08' W 015°25'0 0.0
2016-Dec-05 03:27N 28°08' W 015°25'0 0.0
2016-Dec-05 02:27N 28°08' W 015°25'0 0.0
2016-Dec-05 01:30N 28°08' W 015°25'0 0.0
2016-Dec-05 00:30N 28°08' W 015°25'0 0.0
2016-Dec-04 23:30N 28°08' W 015°25'0 0.0
2016-Dec-04 22:30N 28°08' W 015°25'0 0.0
2016-Dec-04 21:30N 28°08' W 015°25'0 0.0
2016-Dec-04 20:33N 28°08' W 015°25'0 0.0
2016-Dec-04 19:33N 28°08' W 015°25'0 0.0
2016-Dec-04 18:30N 28°08' W 015°25'0 0.0
2016-Dec-04 17:33N 28°08' W 015°25'0 0.0
2016-Dec-04 16:33N 28°08' W 015°25'0 0.0
2016-Dec-04 15:33N 28°08' W 015°25'0 0.0
2016-Dec-04 14:33N 28°08' W 015°25'0 0.0
2016-Dec-04 13:33N 28°08' W 015°25'0 0.0
2016-Dec-04 12:33N 28°08' W 015°25'0 0.0
2016-Dec-04 11:33N 28°08' W 015°25'0 0.0
2016-Dec-04 10:33N 28°08' W 015°25'0 0.0
2016-Dec-04 09:32N 28°08' W 015°25'0 0.0
2016-Dec-04 08:23N 28°08' W 015°25'0 0.0
2016-Dec-04 07:23N 28°08' W 015°25'0 0.0
2016-Dec-04 06:23N 28°08' W 015°25'0 0.0
2016-Dec-04 05:26N 28°08' W 015°25'0 0.0
2016-Dec-04 04:26N 28°08' W 015°25'0 0.0
2016-Dec-04 03:26N 28°08' W 015°25'0 0.0
2016-Dec-04 02:26N 28°08' W 015°25'0 0.0
2016-Dec-04 01:26N 28°08' W 015°25'0 0.0
2016-Dec-04 00:29N 28°08' W 015°25'0 0.0
2016-Dec-03 23:29N 28°08' W 015°25'0 0.0
2016-Dec-03 22:29N 28°08' W 015°25'0 0.0
2016-Dec-03 21:29N 28°08' W 015°25'0 0.0
2016-Dec-03 20:29N 28°08' W 015°25'0 0.0
2016-Dec-03 19:32N 28°08' W 015°25'0 0.0
2016-Dec-03 18:32N 28°08' W 015°25'0 0.0
2016-Dec-03 17:32N 28°08' W 015°25'0 0.0
2016-Dec-03 16:32N 28°08' W 015°25'0 0.0
2016-Dec-03 15:32N 28°08' W 015°25'0 0.0
2016-Dec-03 14:32N 28°08' W 015°25'0 0.0
2016-Dec-03 13:32N 28°08' W 015°25'0 0.0
2016-Dec-03 12:32N 28°08' W 015°25'0 0.0
2016-Dec-03 11:32N 28°08' W 015°25'0 0.0
2016-Dec-03 10:20N 28°08' W 015°25'0 0.0
2016-Dec-03 09:32N 28°08' W 015°25'0 0.0
2016-Dec-03 08:32N 28°08' W 015°25'0 0.0
2016-Dec-03 07:23N 28°08' W 015°25'0 0.0
2016-Dec-03 06:23N 28°08' W 015°25'0 0.0
2016-Dec-03 05:23N 28°08' W 015°25'0 0.0
2016-Dec-03 04:26N 28°08' W 015°25'0 0.0
2016-Dec-03 03:26N 28°08' W 015°25'0 0.0
2016-Dec-03 02:26N 28°08' W 015°25'0 0.0
2016-Dec-03 01:26N 28°08' W 015°25'0 0.0
2016-Dec-03 00:26N 28°08' W 015°25'0 0.0
2016-Dec-02 23:29N 28°08' W 015°25'0 0.0
2016-Dec-02 22:29N 28°08' W 015°25'0 0.0
2016-Dec-02 21:28N 28°08' W 015°25'0 0.0
2016-Dec-02 20:28N 28°08' W 015°25'0 0.0
2016-Dec-02 19:31N 28°08' W 015°25'0 0.0
2016-Dec-02 18:31N 28°08' W 015°25'0 0.0
2016-Dec-02 17:31N 28°08' W 015°25'0 0.0
2016-Dec-02 16:31N 28°08' W 015°25'0 0.0
2016-Dec-02 15:31N 28°08' W 015°25'0 0.0
2016-Dec-02 14:31N 28°08' W 015°25'0 0.0
2016-Dec-02 13:31N 28°08' W 015°25'0 0.0
2016-Dec-02 12:31N 28°08' W 015°25'0 0.0
2016-Dec-02 11:31N 28°08' W 015°25'0 0.0
2016-Dec-02 10:31N 28°08' W 015°25'0 0.0
2016-Dec-02 09:31N 28°08' W 015°25'0 0.0
2016-Dec-02 08:31N 28°08' W 015°25'0 0.0
2016-Dec-02 07:31N 28°08' W 015°25'0 0.0
2016-Dec-02 06:22N 28°08' W 015°25'0 0.0
2016-Dec-02 05:22N 28°08' W 015°25'0 0.0
2016-Dec-02 04:25N 28°08' W 015°25'0 0.0
2016-Dec-02 03:25N 28°08' W 015°25'0 0.0
2016-Dec-02 02:25N 28°08' W 015°25'0 0.0
2016-Dec-02 01:25N 28°08' W 015°25'0 0.0
2016-Dec-02 00:25N 28°08' W 015°25'0 0.0
2016-Dec-01 23:28N 28°08' W 015°25'0 0.0
2016-Dec-01 22:28N 28°08' W 015°25'0 0.0
2016-Dec-01 21:28N 28°08' W 015°25'0 0.0
2016-Dec-01 20:28N 28°08' W 015°25'0 0.0
2016-Dec-01 19:28N 28°08' W 015°25'0 0.0
2016-Dec-01 18:31N 28°08' W 015°25'0 0.0
2016-Dec-01 17:31N 28°08' W 015°25'0 0.0
2016-Dec-01 16:31N 28°08' W 015°25'0 0.0
2016-Dec-01 15:31N 28°08' W 015°25'0 0.0
2016-Dec-01 14:31N 28°08' W 015°25'0 0.0
2016-Dec-01 13:31N 28°08' W 015°25'0 0.0
2016-Dec-01 12:31N 28°08' W 015°25'0 0.0
2016-Dec-01 11:31N 28°08' W 015°25'0 0.0
2016-Dec-01 10:34N 28°08' W 015°25'0 0.0
2016-Dec-01 09:33N 28°08' W 015°25'0 0.0
2016-Dec-01 08:33N 28°08' W 015°25'0 0.0
2016-Dec-01 07:33N 28°08' W 015°25'0 0.0
2016-Dec-01 06:33N 28°08' W 015°25'0 0.0
2016-Dec-01 05:33N 28°08' W 015°25'0 0.0
2016-Dec-01 04:33N 28°08' W 015°25'0 0.0
2016-Dec-01 03:33N 28°08' W 015°25'0 0.0
2016-Dec-01 02:33N 28°08' W 015°25'0 0.0
2016-Dec-01 01:33N 28°08' W 015°25'0 0.0
2016-Dec-01 00:33N 28°08' W 015°25'0 0.0
2016-Nov-30 23:33N 28°08' W 015°25'0 0.0
2016-Nov-30 22:33N 28°08' W 015°25'0 0.0
2016-Nov-30 21:33N 28°08' W 015°25'0 0.0
2016-Nov-30 20:33N 28°08' W 015°25'0 0.0
2016-Nov-30 19:33N 28°08' W 015°25'0 0.0
2016-Nov-30 18:33N 28°08' W 015°25'0 0.0
2016-Nov-30 17:33N 28°08' W 015°25'0 0.0
2016-Nov-30 16:33N 28°08' W 015°25'0 0.0
2016-Nov-30 15:33N 28°08' W 015°25'0 0.0
2016-Nov-30 14:33N 28°08' W 015°25'0 0.0
2016-Nov-30 13:33N 28°08' W 015°25'0 0.0
2016-Nov-30 12:33N 28°08' W 015°25'0 0.0
2016-Nov-30 11:33N 28°08' W 015°25'0 0.0
2016-Nov-30 10:33N 28°08' W 015°25'0 0.0
2016-Nov-30 09:33N 28°08' W 015°25'0 0.0
2016-Nov-30 08:33N 28°08' W 015°25'0 0.0
2016-Nov-30 07:33N 28°08' W 015°25'0 0.0
2016-Nov-30 06:33N 28°08' W 015°25'0 0.0
2016-Nov-30 05:33N 28°08' W 015°25'0 0.0
2016-Nov-30 04:33N 28°08' W 015°25'0 0.0
2016-Nov-30 03:33N 28°08' W 015°25'0 0.0
2016-Nov-30 02:33N 28°08' W 015°25'0 0.0
2016-Nov-30 01:33N 28°08' W 015°25'0 0.0
2016-Nov-30 00:33N 28°08' W 015°25'0 0.0
2016-Nov-29 23:33N 28°08' W 015°25'0 0.0
2016-Nov-29 22:33N 28°08' W 015°25'0 0.0
2016-Nov-29 21:33N 28°08' W 015°25'0 0.0
2016-Nov-29 20:32N 28°08' W 015°25'0 0.0
2016-Nov-29 19:32N 28°08' W 015°25'0 0.0
2016-Nov-29 18:32N 28°08' W 015°25'0 0.0
2016-Nov-29 17:32N 28°08' W 015°25'0 0.0
2016-Nov-29 16:32N 28°08' W 015°25'0 0.0
2016-Nov-29 15:32N 28°08' W 015°25'0 0.0
2016-Nov-29 14:32N 28°08' W 015°25'0 0.0
2016-Nov-29 13:32N 28°08' W 015°25'0 0.0
2016-Nov-29 12:32N 28°08' W 015°25'0 0.0
2016-Nov-29 11:32N 28°08' W 015°25'0 0.0
2016-Nov-29 10:32N 28°08' W 015°25'0 0.0
2016-Nov-29 09:32N 28°08' W 015°25'0 0.0
2016-Nov-29 08:32N 28°08' W 015°25'0 0.0
2016-Nov-29 07:32N 28°08' W 015°25'0 0.0
2016-Nov-29 06:32N 28°08' W 015°25'0 0.0
2016-Nov-29 05:32N 28°08' W 015°25'0 0.0
2016-Nov-29 04:32N 28°08' W 015°25'0 0.0
2016-Nov-29 03:32N 28°08' W 015°25'0 0.0
2016-Nov-29 02:32N 28°08' W 015°25'0 0.0
2016-Nov-29 01:32N 28°08' W 015°25'0 0.0
2016-Nov-29 00:32N 28°08' W 015°25'0 0.0
2016-Nov-28 23:32N 28°08' W 015°25'0 0.0
2016-Nov-28 22:32N 28°08' W 015°25'0 0.0
2016-Nov-28 21:32N 28°08' W 015°25'0 0.0
2016-Nov-28 20:32N 28°08' W 015°25'0 0.0
2016-Nov-28 19:32N 28°08' W 015°25'0 0.0
2016-Nov-28 18:32N 28°08' W 015°25'0 0.0
2016-Nov-28 17:32N 28°08' W 015°25'0 0.0
2016-Nov-28 16:32N 28°08' W 015°25'0 0.0
2016-Nov-28 15:32N 28°08' W 015°25'0 0.0
2016-Nov-28 14:32N 28°08' W 015°25'0 0.0
2016-Nov-28 13:32N 28°08' W 015°25'0 0.0
2016-Nov-28 12:32N 28°08' W 015°25'0 0.0
2016-Nov-28 11:32N 28°08' W 015°25'0 0.0
2016-Nov-28 10:31N 28°08' W 015°25'0 0.0
2016-Nov-28 09:31N 28°08' W 015°25'0 0.0
2016-Nov-28 08:31N 28°08' W 015°25'0 0.0
2016-Nov-28 07:31N 28°08' W 015°25'0 0.0
2016-Nov-28 06:31N 28°08' W 015°25'0 0.0
2016-Nov-28 05:31N 28°08' W 015°25'0 0.0
2016-Nov-28 04:31N 28°08' W 015°25'0 0.0
2016-Nov-28 03:31N 28°08' W 015°25'0 0.0
2016-Nov-28 02:31N 28°08' W 015°25'0 0.0
2016-Nov-28 01:31N 28°08' W 015°25'0 0.0
2016-Nov-28 00:31N 28°08' W 015°25'0 0.0
2016-Nov-27 23:31N 28°08' W 015°25'0 0.0
2016-Nov-27 22:31N 28°08' W 015°25'0 0.0
2016-Nov-27 21:31N 28°08' W 015°25'0 0.0
2016-Nov-27 20:31N 28°08' W 015°25'0 0.0
2016-Nov-27 19:31N 28°08' W 015°25'0 0.0
2016-Nov-27 18:31N 28°08' W 015°25'0 0.0
2016-Nov-27 17:31N 28°08' W 015°25'0 0.0
2016-Nov-27 16:31N 28°08' W 015°25'0 0.0
2016-Nov-27 15:31N 28°08' W 015°25'0 0.0
2016-Nov-27 14:31N 28°08' W 015°25'0 0.0
2016-Nov-27 13:31N 28°08' W 015°25'0 0.0
2016-Nov-27 12:31N 28°08' W 015°25'0 0.0
2016-Nov-27 11:31N 28°08' W 015°25'0 0.0
2016-Nov-27 10:31N 28°08' W 015°25'0 0.0
2016-Nov-27 09:31N 28°08' W 015°25'0 0.0
2016-Nov-27 08:31N 28°08' W 015°25'0 0.0
2016-Nov-27 07:31N 28°08' W 015°25'0 0.0
2016-Nov-27 06:31N 28°08' W 015°25'0 0.0
2016-Nov-27 05:31N 28°08' W 015°25'0 0.0
2016-Nov-27 04:31N 28°08' W 015°25'0 0.0
2016-Nov-27 03:31N 28°08' W 015°25'0 0.0
2016-Nov-27 02:31N 28°08' W 015°25'0 0.0
2016-Nov-27 01:31N 28°08' W 015°25'0 0.0
2016-Nov-27 00:34N 28°08' W 015°25'0 0.0
2016-Nov-26 23:33N 28°08' W 015°25'0 0.0
2016-Nov-26 22:33N 28°08' W 015°25'0 0.0
2016-Nov-26 21:33N 28°08' W 015°25'0 0.0
2016-Nov-26 20:33N 28°08' W 015°25'0 0.0
2016-Nov-26 19:33N 28°08' W 015°25'0 0.0
2016-Nov-26 18:33N 28°08' W 015°25'0 0.0
2016-Nov-26 17:33N 28°08' W 015°25'0 0.0
2016-Nov-26 16:33N 28°08' W 015°25'0 0.0
2016-Nov-26 15:33N 28°08' W 015°25'0 0.0
2016-Nov-26 14:33N 28°08' W 015°25'0 0.0
2016-Nov-26 13:33N 28°08' W 015°25'0 0.0
2016-Nov-26 12:27N 28°08' W 015°25'0 0.0
2016-Nov-26 11:33N 28°08' W 015°25'0 0.0
2016-Nov-26 10:33N 28°08' W 015°25'0 0.0
2016-Nov-26 09:33N 28°08' W 015°25'0 0.0
2016-Nov-26 08:33N 28°08' W 015°25'0 0.0
2016-Nov-26 07:33N 28°08' W 015°25'0 0.0
2016-Nov-26 06:33N 28°08' W 015°25'0 0.0
2016-Nov-26 05:33N 28°08' W 015°25'0 0.0
2016-Nov-26 04:33N 28°08' W 015°25'0 0.0
2016-Nov-26 03:33N 28°08' W 015°25'0 0.0
2016-Nov-26 02:33N 28°08' W 015°25'0 0.0
2016-Nov-26 01:33N 28°08' W 015°25'0 0.0
2016-Nov-26 00:33N 28°08' W 015°25'0 0.0
2016-Nov-25 23:33N 28°08' W 015°25'0 0.0
2016-Nov-25 22:33N 28°08' W 015°25'0 0.0
2016-Nov-25 21:33N 28°08' W 015°25'0 0.0
2016-Nov-25 20:33N 28°08' W 015°25'0 0.0
2016-Nov-25 19:33N 28°08' W 015°25'0 0.0
2016-Nov-25 18:33N 28°08' W 015°25'0 0.0
2016-Nov-25 17:33N 28°08' W 015°25'0 0.0
2016-Nov-25 16:33N 28°08' W 015°25'0 0.0
2016-Nov-25 15:33N 28°08' W 015°25'0 0.0
2016-Nov-25 14:33N 28°08' W 015°25'0 0.0
2016-Nov-25 13:33N 28°08' W 015°25'  
Track history (hours):
 
Tides and Currents Weather Stations Pressure Air Temp Water Temp Dewpoint Dewpoint Depression Visibility Wind Speed Wind Dir Waves Ship Positions

Eendracht (Netherlands)

Last reported at 2016-Dec-05 13:10 UTC. Time now 2016-Dec-06 21:57 UTC.
Position N 27°39' W 015°19'.

Length 59 m; beam 12 m; draft 5 m.

MMSI: 244543000.

Date/timePositionNaut miles runAvg speedWind from/ knotsBaromVisibWave heightAir tempDewpointWater temp
2016-Dec-05 13:10N 27°39' W 015°19'4 6.1
2016-Dec-05 12:33N 27°42' W 015°19'6 6.0
2016-Dec-05 11:33N 27°48' W 015°19'6 6.1
2016-Dec-05 10:33N 27°54' W 015°19'6 6.4
2016-Dec-05 09:33N 28°01' W 015°20'6 6.3
2016-Dec-05 08:33N 28°06' W 015°23'3 1.9
2016-Dec-05 07:09N 28°08' W 015°25'0 0.0
2016-Dec-05 06:27N 28°08' W 015°25'0 0.0
2016-Dec-05 05:27N 28°08' W 015°25'0 0.0
2016-Dec-05 04:24N 28°08' W 015°25'0 0.0
2016-Dec-05 03:27N 28°08' W 015°25'0 0.0
2016-Dec-05 02:27N 28°08' W 015°25'0 0.0
2016-Dec-05 01:30N 28°08' W 015°25'0 0.0
2016-Dec-05 00:30N 28°08' W 015°25'0 0.0
2016-Dec-04 23:30N 28°08' W 015°25'0 0.0
2016-Dec-04 22:30N 28°08' W 015°25'0 0.0
2016-Dec-04 21:30N 28°08' W 015°25'0 0.0
2016-Dec-04 20:33N 28°08' W 015°25'0 0.0
2016-Dec-04 19:33N 28°08' W 015°25'0 0.0
2016-Dec-04 18:30N 28°08' W 015°25'0 0.0
2016-Dec-04 17:33N 28°08' W 015°25'0 0.0
2016-Dec-04 16:33N 28°08' W 015°25'0 0.0
2016-Dec-04 15:33N 28°08' W 015°25'0 0.0
2016-Dec-04 14:33N 28°08' W 015°25'0 0.0
2016-Dec-04 13:33N 28°08' W 015°25'0 0.0
2016-Dec-04 12:33N 28°08' W 015°25'0 0.0
2016-Dec-04 11:33N 28°08' W 015°25'0 0.0
2016-Dec-04 10:33N 28°08' W 015°25'0 0.0
2016-Dec-04 09:32N 28°08' W 015°25'0 0.0
2016-Dec-04 08:23N 28°08' W 015°25'0 0.0
2016-Dec-04 07:23N 28°08' W 015°25'0 0.0
2016-Dec-04 06:23N 28°08' W 015°25'0 0.0
2016-Dec-04 05:26N 28°08' W 015°25'0 0.0
2016-Dec-04 04:26N 28°08' W 015°25'0 0.0
2016-Dec-04 03:26N 28°08' W 015°25'0 0.0
2016-Dec-04 02:26N 28°08' W 015°25'0 0.0
2016-Dec-04 01:26N 28°08' W 015°25'0 0.0
2016-Dec-04 00:29N 28°08' W 015°25'0 0.0
2016-Dec-03 23:29N 28°08' W 015°25'0 0.0
2016-Dec-03 22:29N 28°08' W 015°25'0 0.0
2016-Dec-03 21:29N 28°08' W 015°25'0 0.0
2016-Dec-03 20:29N 28°08' W 015°25'0 0.0
2016-Dec-03 19:32N 28°08' W 015°25'0 0.0
2016-Dec-03 18:32N 28°08' W 015°25'0 0.0
2016-Dec-03 17:32N 28°08' W 015°25'0 0.0
2016-Dec-03 16:32N 28°08' W 015°25'0 0.0
2016-Dec-03 15:32N 28°08' W 015°25'0 0.0
2016-Dec-03 14:32N 28°08' W 015°25'0 0.0
2016-Dec-03 13:32N 28°08' W 015°25'0 0.0
2016-Dec-03 12:32N 28°08' W 015°25'0 0.0
2016-Dec-03 11:32N 28°08' W 015°25'0 0.0
2016-Dec-03 10:20N 28°08' W 015°25'0 0.0
2016-Dec-03 09:32N 28°08' W 015°25'0 0.0
2016-Dec-03 08:32N 28°08' W 015°25'0 0.0
2016-Dec-03 07:23N 28°08' W 015°25'0 0.0
2016-Dec-03 06:23N 28°08' W 015°25'0 0.0
2016-Dec-03 05:23N 28°08' W 015°25'0 0.0
2016-Dec-03 04:26N 28°08' W 015°25'0 0.0
2016-Dec-03 03:26N 28°08' W 015°25'0 0.0
2016-Dec-03 02:26N 28°08' W 015°25'0 0.0
2016-Dec-03 01:26N 28°08' W 015°25'0 0.0
2016-Dec-03 00:26N 28°08' W 015°25'0 0.0
2016-Dec-02 23:29N 28°08' W 015°25'0 0.0
2016-Dec-02 22:29N 28°08' W 015°25'0 0.0
2016-Dec-02 21:28N 28°08' W 015°25'0 0.0
2016-Dec-02 20:28N 28°08' W 015°25'0 0.0
2016-Dec-02 19:31N 28°08' W 015°25'0 0.0
2016-Dec-02 18:31N 28°08' W 015°25'0 0.0
2016-Dec-02 17:31N 28°08' W 015°25'0 0.0
2016-Dec-02 16:31N 28°08' W 015°25'0 0.0
2016-Dec-02 15:31N 28°08' W 015°25'0 0.0
2016-Dec-02 14:31N 28°08' W 015°25'0 0.0
2016-Dec-02 13:31N 28°08' W 015°25'0 0.0
2016-Dec-02 12:31N 28°08' W 015°25'0 0.0
2016-Dec-02 11:31N 28°08' W 015°25'0 0.0
2016-Dec-02 10:31N 28°08' W 015°25'0 0.0
2016-Dec-02 09:31N 28°08' W 015°25'0 0.0
2016-Dec-02 08:31N 28°08' W 015°25'0 0.0
2016-Dec-02 07:31N 28°08' W 015°25'0 0.0
2016-Dec-02 06:22N 28°08' W 015°25'0 0.0
2016-Dec-02 05:22N 28°08' W 015°25'0 0.0
2016-Dec-02 04:25N 28°08' W 015°25'0 0.0
2016-Dec-02 03:25N 28°08' W 015°25'0 0.0
2016-Dec-02 02:25N 28°08' W 015°25'0 0.0
2016-Dec-02 01:25N 28°08' W 015°25'0 0.0
2016-Dec-02 00:25N 28°08' W 015°25'0 0.0
2016-Dec-01 23:28N 28°08' W 015°25'0 0.0
2016-Dec-01 22:28N 28°08' W 015°25'0 0.0
2016-Dec-01 21:28N 28°08' W 015°25'0 0.0
2016-Dec-01 20:28N 28°08' W 015°25'0 0.0
2016-Dec-01 19:28N 28°08' W 015°25'0 0.0
2016-Dec-01 18:31N 28°08' W 015°25'0 0.0
2016-Dec-01 17:31N 28°08' W 015°25'0 0.0
2016-Dec-01 16:31N 28°08' W 015°25'0 0.0
2016-Dec-01 15:31N 28°08' W 015°25'0 0.0
2016-Dec-01 14:31N 28°08' W 015°25'0 0.0
2016-Dec-01 13:31N 28°08' W 015°25'0 0.0
2016-Dec-01 12:31N 28°08' W 015°25'0 0.0
2016-Dec-01 11:31N 28°08' W 015°25'0 0.0
2016-Dec-01 10:34N 28°08' W 015°25'0 0.0
2016-Dec-01 09:33N 28°08' W 015°25'0 0.0
2016-Dec-01 08:33N 28°08' W 015°25'0 0.0
2016-Dec-01 07:33N 28°08' W 015°25'0 0.0
2016-Dec-01 06:33N 28°08' W 015°25'0 0.0
2016-Dec-01 05:33N 28°08' W 015°25'0 0.0
2016-Dec-01 04:33N 28°08' W 015°25'0 0.0
2016-Dec-01 03:33N 28°08' W 015°25'0 0.0
2016-Dec-01 02:33N 28°08' W 015°25'0 0.0
2016-Dec-01 01:33N 28°08' W 015°25'0 0.0
2016-Dec-01 00:33N 28°08' W 015°25'0 0.0
2016-Nov-30 23:33N 28°08' W 015°25'0 0.0
2016-Nov-30 22:33N 28°08' W 015°25'0 0.0
2016-Nov-30 21:33N 28°08' W 015°25'0 0.0
2016-Nov-30 20:33N 28°08' W 015°25'0 0.0
2016-Nov-30 19:33N 28°08' W 015°25'0 0.0
2016-Nov-30 18:33N 28°08' W 015°25'0 0.0
2016-Nov-30 17:33N 28°08' W 015°25'0 0.0
2016-Nov-30 16:33N 28°08' W 015°25'0 0.0
2016-Nov-30 15:33N 28°08' W 015°25'0 0.0
2016-Nov-30 14:33N 28°08' W 015°25'0 0.0
2016-Nov-30 13:33N 28°08' W 015°25'0 0.0
2016-Nov-30 12:33N 28°08' W 015°25'0 0.0
2016-Nov-30 11:33N 28°08' W 015°25'0 0.0
2016-Nov-30 10:33N 28°08' W 015°25'0 0.0
2016-Nov-30 09:33N 28°08' W 015°25'0 0.0
2016-Nov-30 08:33N 28°08' W 015°25'0 0.0
2016-Nov-30 07:33N 28°08' W 015°25'0 0.0
2016-Nov-30 06:33N 28°08' W 015°25'0 0.0
2016-Nov-30 05:33N 28°08' W 015°25'0 0.0
2016-Nov-30 04:33N 28°08' W 015°25'0 0.0
2016-Nov-30 03:33N 28°08' W 015°25'0 0.0
2016-Nov-30 02:33N 28°08' W 015°25'0 0.0
2016-Nov-30 01:33N 28°08' W 015°25'0 0.0
2016-Nov-30 00:33N 28°08' W 015°25'0 0.0
2016-Nov-29 23:33N 28°08' W 015°25'0 0.0
2016-Nov-29 22:33N 28°08' W 015°25'0 0.0
2016-Nov-29 21:33N 28°08' W 015°25'0 0.0
2016-Nov-29 20:32N 28°08' W 015°25'0 0.0
2016-Nov-29 19:32N 28°08' W 015°25'0 0.0
2016-Nov-29 18:32N 28°08' W 015°25'0 0.0
2016-Nov-29 17:32N 28°08' W 015°25'0 0.0
2016-Nov-29 16:32N 28°08' W 015°25'0 0.0
2016-Nov-29 15:32N 28°08' W 015°25'0 0.0
2016-Nov-29 14:32N 28°08' W 015°25'0 0.0
2016-Nov-29 13:32N 28°08' W 015°25'0 0.0
2016-Nov-29 12:32N 28°08' W 015°25'0 0.0
2016-Nov-29 11:32N 28°08' W 015°25'0 0.0
2016-Nov-29 10:32N 28°08' W 015°25'0 0.0
2016-Nov-29 09:32N 28°08' W 015°25'0 0.0
2016-Nov-29 08:32N 28°08' W 015°25'0 0.0
2016-Nov-29 07:32N 28°08' W 015°25'0 0.0
2016-Nov-29 06:32N 28°08' W 015°25'0 0.0
2016-Nov-29 05:32N 28°08' W 015°25'0 0.0
2016-Nov-29 04:32N 28°08' W 015°25'0 0.0
2016-Nov-29 03:32N 28°08' W 015°25'0 0.0
2016-Nov-29 02:32N 28°08' W 015°25'0 0.0
2016-Nov-29 01:32N 28°08' W 015°25'0 0.0
2016-Nov-29 00:32N 28°08' W 015°25'0 0.0
2016-Nov-28 23:32N 28°08' W 015°25'0 0.0
2016-Nov-28 22:32N 28°08' W 015°25'0 0.0
2016-Nov-28 21:32N 28°08' W 015°25'0 0.0
2016-Nov-28 20:32N 28°08' W 015°25'0 0.0
2016-Nov-28 19:32N 28°08' W 015°25'0 0.0
2016-Nov-28 18:32N 28°08' W 015°25'0 0.0
2016-Nov-28 17:32N 28°08' W 015°25'0 0.0
2016-Nov-28 16:32N 28°08' W 015°25'0 0.0
2016-Nov-28 15:32N 28°08' W 015°25'0 0.0
2016-Nov-28 14:32N 28°08' W 015°25'0 0.0
2016-Nov-28 13:32N 28°08' W 015°25'0 0.0
2016-Nov-28 12:32N 28°08' W 015°25'0 0.0
2016-Nov-28 11:32N 28°08' W 015°25'0 0.0
2016-Nov-28 10:31N 28°08' W 015°25'0 0.0
2016-Nov-28 09:31N 28°08' W 015°25'0 0.0
2016-Nov-28 08:31N 28°08' W 015°25'0 0.0
2016-Nov-28 07:31N 28°08' W 015°25'0 0.0
2016-Nov-28 06:31N 28°08' W 015°25'0 0.0
2016-Nov-28 05:31N 28°08' W 015°25'0 0.0
2016-Nov-28 04:31N 28°08' W 015°25'0 0.0
2016-Nov-28 03:31N 28°08' W 015°25'0 0.0
2016-Nov-28 02:31N 28°08' W 015°25'0 0.0
2016-Nov-28 01:31N 28°08' W 015°25'0 0.0
2016-Nov-28 00:31N 28°08' W 015°25'0 0.0
2016-Nov-27 23:31N 28°08' W 015°25'0 0.0
2016-Nov-27 22:31N 28°08' W 015°25'0 0.0
2016-Nov-27 21:31N 28°08' W 015°25'0 0.0
2016-Nov-27 20:31N 28°08' W 015°25'0 0.0
2016-Nov-27 19:31N 28°08' W 015°25'0 0.0
2016-Nov-27 18:31N 28°08' W 015°25'0 0.0
2016-Nov-27 17:31N 28°08' W 015°25'0 0.0
2016-Nov-27 16:31N 28°08' W 015°25'0 0.0
2016-Nov-27 15:31N 28°08' W 015°25'0 0.0
2016-Nov-27 14:31N 28°08' W 015°25'0 0.0
2016-Nov-27 13:31N 28°08' W 015°25'0 0.0
2016-Nov-27 12:31N 28°08' W 015°25'0 0.0
2016-Nov-27 11:31N 28°08' W 015°25'0 0.0
2016-Nov-27 10:31N 28°08' W 015°25'0 0.0
2016-Nov-27 09:31N 28°08' W 015°25'0 0.0
2016-Nov-27 08:31N 28°08' W 015°25'0 0.0
2016-Nov-27 07:31N 28°08' W 015°25'0 0.0
2016-Nov-27 06:31N 28°08' W 015°25'0 0.0
2016-Nov-27 05:31N 28°08' W 015°25'0 0.0
2016-Nov-27 04:31N 28°08' W 015°25'0 0.0
2016-Nov-27 03:31N 28°08' W 015°25'0 0.0
2016-Nov-27 02:31N 28°08' W 015°25'0 0.0
2016-Nov-27 01:31N 28°08' W 015°25'0 0.0
2016-Nov-27 00:34N 28°08' W 015°25'0 0.0
2016-Nov-26 23:33N 28°08' W 015°25'0 0.0
2016-Nov-26 22:33N 28°08' W 015°25'0 0.0
2016-Nov-26 21:33N 28°08' W 015°25'0 0.0
2016-Nov-26 20:33N 28°08' W 015°25'0 0.0
2016-Nov-26 19:33N 28°08' W 015°25'0 0.0
2016-Nov-26 18:33N 28°08' W 015°25'0 0.0
2016-Nov-26 17:33N 28°08' W 015°25'0 0.0
2016-Nov-26 16:33N 28°08' W 015°25'0 0.0
2016-Nov-26 15:33N 28°08' W 015°25'0 0.0
2016-Nov-26 14:33N 28°08' W 015°25'0 0.0
2016-Nov-26 13:33N 28°08' W 015°25'0 0.0
2016-Nov-26 12:27N 28°08' W 015°25'0 0.0
2016-Nov-26 11:33N 28°08' W 015°25'0 0.0
2016-Nov-26 10:33N 28°08' W 015°25'0 0.0
2016-Nov-26 09:33N 28°08' W 015°25'0 0.0
2016-Nov-26 08:33N 28°08' W 015°25'0 0.0
2016-Nov-26 07:33N 28°08' W 015°25'0 0.0
2016-Nov-26 06:33N 28°08' W 015°25'0 0.0
2016-Nov-26 05:33N 28°08' W 015°25'0 0.0
2016-Nov-26 04:33N 28°08' W 015°25'0 0.0
2016-Nov-26 03:33N 28°08' W 015°25'0 0.0
2016-Nov-26 02:33N 28°08' W 015°25'0 0.0
2016-Nov-26 01:33N 28°08' W 015°25'0 0.0
2016-Nov-26 00:33N 28°08' W 015°25'0 0.0
2016-Nov-25 23:33N 28°08' W 015°25'0 0.0
2016-Nov-25 22:33N 28°08' W 015°25'0 0.0
2016-Nov-25 21:33N 28°08' W 015°25'0 0.0
2016-Nov-25 20:33N 28°08' W 015°25'0 0.0
2016-Nov-25 19:33N 28°08' W 015°25'0 0.0
2016-Nov-25 18:33N 28°08' W 015°25'0 0.0
2016-Nov-25 17:33N 28°08' W 015°25'0 0.0
2016-Nov-25 16:33N 28°08' W 015°25'0 0.0
2016-Nov-25 15:33N 28°08' W 015°25'0 0.0
2016-Nov-25 14:33N 28°08' W 015°25'0 0.0
2016-Nov-25 13:33N 28°08' W 015°25'  

Dump ship's entire track history